Time;durP1;ratioP1;P1;durP2;ratioP2;P2;SDS_P1;SDS_P2;PMS_P1;PMS_P2;Temp;Humidity;BMP_temperature;BMP_pressure;BME280_temperature;BME280_humidity;BME280_pressure;Samples;Min_cycle;Max_cycle;Signal;HPM_P1;HPM_P2
2021/07/10 00:01:51;;;;;;;5.80;3.65;;;;;;;15.44;nan;100839.75;5019682;28;20041;-74
2021/07/10 00:04:17;;;;;;;6.57;4.55;;;;;;;15.43;nan;100843.28;5019854;28;20292;-74
2021/07/10 00:06:42;;;;;;;6.00;4.85;;;;;;;15.50;nan;100844.91;5020243;28;20080;-74
2021/07/10 00:09:07;;;;;;;8.98;3.97;;;;;;;15.55;nan;100835.91;5017059;28;20048;-74
2021/07/10 00:11:33;;;;;;;8.50;3.67;;;;;;;15.47;nan;100832.56;5021012;28;20044;-74
2021/07/10 00:13:58;;;;;;;6.80;4.57;;;;;;;15.51;nan;100828.03;5015864;28;20504;-74
2021/07/10 00:16:23;;;;;;;5.90;4.10;;;;;;;15.52;nan;100822.69;5022965;28;20385;-73
2021/07/10 00:18:49;;;;;;;6.13;3.53;;;;;;;15.54;nan;100820.88;5019589;28;20571;-74
2021/07/10 00:21:14;;;;;;;10.27;4.47;;;;;;;15.52;nan;100816.50;5023591;28;20375;-74
2021/07/10 00:23:39;;;;;;;7.22;3.97;;;;;;;15.54;nan;100817.34;5019402;28;20488;-74
2021/07/10 00:26:05;;;;;;;13.15;4.75;;;;;;;15.50;nan;100820.97;5022917;28;20116;-74
2021/07/10 00:28:30;;;;;;;7.25;4.78;;;;;;;15.49;nan;100809.47;5019610;28;20026;-74
2021/07/10 00:30:55;;;;;;;7.43;4.20;;;;;;;15.48;nan;100825.44;5023204;28;20718;-74
2021/07/10 00:33:21;;;;;;;5.22;3.80;;;;;;;15.55;nan;100819.97;5019443;28;20568;-74
2021/07/10 00:35:46;;;;;;;8.60;4.65;;;;;;;15.53;nan;100824.44;5021614;28;20128;-74
2021/07/10 00:38:11;;;;;;;9.40;4.80;;;;;;;15.59;nan;100818.13;5019559;28;20128;-74
2021/07/10 00:40:37;;;;;;;10.23;5.20;;;;;;;15.66;nan;100829.50;5022853;28;20076;-74
2021/07/10 00:43:02;;;;;;;9.52;5.10;;;;;;;15.71;nan;100831.16;5019532;28;20048;-74
2021/07/10 00:45:28;;;;;;;9.93;5.43;;;;;;;15.70;nan;100832.09;5022498;28;20034;-74
2021/07/10 00:47:53;;;;;;;6.43;5.18;;;;;;;15.68;nan;100830.34;5019486;28;20030;-74
2021/07/10 00:50:22;;;;;;;9.40;5.47;;;;;;;15.77;nan;100828.38;5022712;28;20037;-74
2021/07/10 00:52:48;;;;;;;7.40;4.45;;;;;;;15.80;nan;100829.22;5015321;28;20044;-74
2021/07/10 00:55:14;;;;;;;9.88;5.78;;;;;;;15.81;nan;100830.97;5024756;28;20037;-74
2021/07/10 00:57:43;;;;;;;7.55;5.20;;;;;;;15.85;nan;100824.66;5023141;28;20048;-74
2021/07/10 01:00:12;;;;;;;6.88;5.07;;;;;;;15.77;nan;100830.16;5026316;28;20419;-74
2021/07/10 01:02:40;;;;;;;9.55;5.55;;;;;;;15.85;nan;100819.31;5024123;28;20096;-74
2021/07/10 01:05:07;;;;;;;8.32;5.70;;;;;;;15.87;nan;100822.84;5025247;28;20072;-74
2021/07/10 01:07:32;;;;;;;7.28;5.50;;;;;;;15.92;nan;100820.94;5024404;28;20076;-74
2021/07/10 01:09:57;;;;;;;7.80;5.75;;;;;;;15.93;nan;100817.41;5025253;28;20041;-74
2021/07/10 01:12:23;;;;;;;7.53;5.20;;;;;;;16.00;nan;100826.97;5024455;28;20228;-74
2021/07/10 01:14:48;;;;;;;8.57;5.63;;;;;;;15.98;nan;100816.38;5024747;28;20043;-74
2021/07/10 01:17:13;;;;;;;8.45;5.75;;;;;;;16.04;nan;100820.66;5024295;28;20041;-74
2021/07/10 01:19:39;;;;;;;7.22;5.32;;;;;;;16.10;nan;100824.97;5025138;28;20113;-74
2021/07/10 01:22:08;;;;;;;11.35;6.78;;;;;;;16.07;nan;100820.59;5024164;28;20076;-74
2021/07/10 01:24:33;;;;;;;7.05;6.13;;;;;;;16.09;nan;100818.78;5024191;28;20128;-74
2021/07/10 01:26:59;;;;;;;6.90;5.35;;;;;;;16.12;nan;100813.38;5024867;28;20049;-74
2021/07/10 01:29:25;;;;;;;5.63;4.60;;;;;;;16.16;nan;100819.47;5024420;28;20048;-74
2021/07/10 01:31:53;;;;;;;8.45;5.25;;;;;;;16.13;nan;100815.09;5024606;28;20045;-74
2021/07/10 01:34:18;;;;;;;10.43;5.90;;;;;;;16.15;nan;100818.59;5023829;28;20388;-74
2021/07/10 01:36:45;;;;;;;7.70;5.75;;;;;;;16.17;nan;100819.44;5024946;28;20061;-74
2021/07/10 01:39:11;;;;;;;8.43;6.78;;;;;;;16.18;nan;100822.97;5023778;28;20041;-75
2021/07/10 01:41:46;;;;;;;7.55;5.47;;;;;;;16.18;nan;100822.97;5020052;28;20038;-74
2021/07/10 01:44:12;;;;;;;6.57;5.72;;;;;;;16.18;nan;100820.31;5017020;28;20034;-74
2021/07/10 01:46:38;;;;;;;9.77;6.93;;;;;;;16.23;nan;100825.53;5019005;28;20087;-74
2021/07/10 01:49:04;;;;;;;10.32;7.60;;;;;;;16.27;nan;100824.53;5021064;28;20036;-74
2021/07/10 01:51:29;;;;;;;10.32;6.57;;;;;;;16.33;nan;100821.72;5026038;28;20592;-74
2021/07/10 01:53:54;;;;;;;8.55;5.57;;;;;;;16.33;nan;100822.59;5019651;28;20037;-74
2021/07/10 01:56:20;;;;;;;8.93;5.93;;;;;;;16.31;nan;100819.09;5025704;28;20041;-75
2021/07/10 01:58:45;;;;;;;10.55;7.03;;;;;;;16.30;nan;100827.16;5018009;28;20037;-74
2021/07/10 02:01:10;;;;;;;9.25;5.95;;;;;;;16.31;nan;100819.09;5025848;28;20040;-74
2021/07/10 02:03:36;;;;;;;9.02;6.03;;;;;;;16.25;nan;100823.72;5021912;28;20034;-74
2021/07/10 02:06:03;;;;;;;8.60;7.10;;;;;;;16.23;nan;100823.75;5024097;28;20091;-74
2021/07/10 02:08:28;;;;;;;9.18;7.00;;;;;;;16.20;nan;100827.34;5018016;28;20080;-74
2021/07/10 02:10:53;;;;;;;10.23;7.00;;;;;;;16.18;nan;100834.50;5025667;28;20434;-74
2021/07/10 02:13:19;;;;;;;8.20;5.82;;;;;;;16.21;nan;100828.22;5021632;28;20108;-74
2021/07/10 02:15:44;;;;;;;11.88;6.65;;;;;;;16.26;nan;100836.13;5017500;28;20042;-74
2021/07/10 02:18:09;;;;;;;8.90;6.32;;;;;;;16.25;nan;100834.38;5017732;28;20061;-74
2021/07/10 02:20:35;;;;;;;9.50;6.45;;;;;;;16.21;nan;100833.56;5025548;28;20136;-75
2021/07/10 02:23:01;;;;;;;13.18;7.53;;;;;;;16.18;nan;100838.97;5021610;28;20042;-75
2021/07/10 02:25:28;;;;;;;8.63;7.38;;;;;;;16.21;nan;100844.19;5017233;28;20026;-74
2021/07/10 02:27:54;;;;;;;9.95;7.10;;;;;;;16.20;nan;100838.00;5017842;28;20038;-74
2021/07/10 02:30:24;;;;;;;10.98;7.30;;;;;;;16.27;nan;100837.84;5025148;28;20124;-75
2021/07/10 02:32:49;;;;;;;10.63;8.45;;;;;;;16.21;nan;100839.75;5022361;28;20433;-75
2021/07/10 02:35:16;;;;;;;9.82;7.60;;;;;;;16.21;nan;100834.41;5024053;28;20067;-75
2021/07/10 02:37:41;;;;;;;9.38;7.25;;;;;;;16.24;nan;100833.47;5022154;28;20046;-75
2021/07/10 02:40:09;;;;;;;16.90;10.93;;;;;;;16.20;nan;100832.69;5024222;28;20052;-74
2021/07/10 02:42:35;;;;;;;12.73;11.25;;;;;;;16.25;nan;100837.91;5022386;28;20120;-74
2021/07/10 02:45:02;;;;;;;15.07;9.38;;;;;;;16.31;nan;100835.06;5023532;28;20033;-75
2021/07/10 02:47:27;;;;;;;16.05;12.65;;;;;;;16.28;nan;100821.84;5039062;23;20046;-77
2021/07/10 02:49:53;;;;;;;13.63;10.35;;;;;;;16.32;nan;100819.97;5035103;28;20133;-78
2021/07/10 02:52:18;;;;;;;18.55;15.10;;;;;;;16.34;nan;100823.47;5033825;28;20038;-78
2021/07/10 02:54:43;;;;;;;13.38;11.48;;;;;;;16.39;nan;100818.91;5035799;28;20112;-78
2021/07/10 02:57:09;;;;;;;18.70;12.98;;;;;;;16.38;nan;100819.84;5051439;28;20036;-78
2021/07/10 02:59:34;;;;;;;14.07;10.15;;;;;;;16.41;nan;100830.41;5043173;28;20048;-78
2021/07/10 03:02:00;;;;;;;12.52;11.20;;;;;;;16.49;nan;100825.75;5051123;28;20038;-78
2021/07/10 03:04:25;;;;;;;15.80;12.52;;;;;;;16.51;nan;100825.72;5035584;28;20454;-78
2021/07/10 03:06:51;;;;;;;19.80;15.02;;;;;;;16.50;nan;100829.28;5035074;28;20045;-77
2021/07/10 03:09:16;;;;;;;13.57;11.25;;;;;;;16.55;nan;100830.91;5033694;28;20025;-77
2021/07/10 03:11:42;;;;;;;18.98;12.07;;;;;;;16.60;nan;100825.47;5032577;28;20057;-77
2021/07/10 03:14:07;;;;;;;18.95;10.88;;;;;;;16.54;nan;100815.84;5026419;28;20693;-77
2021/07/10 03:16:33;;;;;;;18.52;14.13;;;;;;;16.51;nan;100826.59;5033072;28;20098;-77
2021/07/10 03:18:58;;;;;;;16.65;13.35;;;;;;;16.58;nan;100822.84;5032971;28;20588;-78
2021/07/10 03:21:23;;;;;;;21.40;13.52;;;;;;;16.59;nan;100818.41;5035582;28;20053;-79
2021/07/10 03:23:49;;;;;;;18.10;12.32;;;;;;;16.65;nan;100823.56;5043158;28;20069;-78
2021/07/10 03:26:14;;;;;;;23.55;12.45;;;;;;;16.64;nan;100820.03;5034388;28;20041;-78
2021/07/10 03:28:40;;;;;;;19.08;16.73;;;;;;;16.65;nan;100823.56;5042715;28;20033;-78
2021/07/10 03:31:06;;;;;;;21.10;14.40;;;;;;;16.70;nan;100832.31;5034261;28;20543;-78
2021/07/10 03:33:35;;;;;;;18.33;13.98;;;;;;;16.71;nan;100820.72;5035213;28;20076;-78
2021/07/10 03:36:01;;;;;;;18.23;12.07;;;;;;;16.76;nan;100826.81;5035240;28;20491;-78
2021/07/10 03:38:27;;;;;;;13.93;11.32;;;;;;;16.76;nan;100820.59;5033779;28;20072;-78
2021/07/10 03:40:52;;;;;;;20.70;13.45;;;;;;;16.73;nan;100821.56;5031411;28;20051;-79
2021/07/10 03:43:17;;;;;;;14.85;12.98;;;;;;;16.81;nan;100826.72;5042233;28;20053;-79
2021/07/10 03:45:43;;;;;;;13.65;11.35;;;;;;;16.73;nan;100831.34;5042196;28;20053;-78
2021/07/10 03:48:08;;;;;;;14.75;9.70;;;;;;;16.72;nan;100824.28;5034895;28;20033;-78
2021/07/10 03:50:34;;;;;;;19.60;11.60;;;;;;;16.68;nan;100827.94;5033739;28;20037;-78
2021/07/10 03:52:59;;;;;;;22.00;16.77;;;;;;;16.71;nan;100830.50;5042088;28;20124;-78
2021/07/10 03:55:25;;;;;;;13.38;11.10;;;;;;;16.68;nan;100827.94;5033657;28;20033;-79
2021/07/10 03:57:50;;;;;;;13.77;10.05;;;;;;;16.74;nan;100827.75;5034369;28;20037;-79
2021/07/10 04:00:20;;;;;;;16.00;10.23;;;;;;;16.79;nan;100833.88;5034875;28;20480;-78
2021/07/10 04:02:46;;;;;;;16.73;11.23;;;;;;;16.81;nan;100830.25;5035126;28;20029;-78
2021/07/10 04:05:12;;;;;;;14.50;9.60;;;;;;;16.94;nan;100822.78;5033507;28;20450;-79
2021/07/10 04:07:38;;;;;;;16.17;11.20;;;;;;;17.04;nan;100832.28;5030906;28;20037;-79
2021/07/10 04:10:05;;;;;;;12.15;9.90;;;;;;;17.11;nan;100832.09;5042065;28;20041;-79
2021/07/10 04:12:31;;;;;;;14.00;7.72;;;;;;;17.17;nan;100827.47;5034926;28;20041;-79
2021/07/10 04:15:00;;;;;;;11.38;8.18;;;;;;;17.09;nan;100825.03;5034462;28;20207;-79
2021/07/10 04:17:30;;;;;;;11.77;8.93;;;;;;;17.09;nan;100838.38;5035153;28;20052;-79
2021/07/10 04:19:56;;;;;;;13.63;7.75;;;;;;;17.08;nan;100841.97;5035036;28;20034;-79
2021/07/10 04:22:22;;;;;;;14.05;8.20;;;;;;;17.06;nan;100841.13;5034776;28;20029;-79
2021/07/10 04:24:48;;;;;;;12.55;8.75;;;;;;;16.97;nan;100852.03;5033707;28;20079;-78
2021/07/10 04:27:13;;;;;;;14.93;9.20;;;;;;;16.87;nan;100850.53;5034356;28;20111;-79
2021/07/10 04:29:39;;;;;;;11.93;8.02;;;;;;;16.87;nan;100845.19;5039965;28;20041;-80
2021/07/10 04:32:05;;;;;;;13.20;9.20;;;;;;;16.90;nan;100850.47;5033013;28;20040;-78
2021/07/10 04:34:30;;;;;;;15.65;8.40;;;;;;;16.91;nan;100852.22;5036002;28;20067;-79
2021/07/10 04:36:55;;;;;;;13.60;7.68;;;;;;;16.87;nan;100850.53;5034200;28;20037;-79
2021/07/10 04:39:20;;;;;;;14.65;8.93;;;;;;;16.84;nan;100863.94;5033358;28;20048;-79
2021/07/10 04:41:46;;;;;;;11.35;8.15;;;;;;;16.75;nan;100850.84;5034110;28;20056;-78
2021/07/10 04:44:11;;;;;;;14.55;7.47;;;;;;;16.77;nan;100860.59;5033527;28;20124;-78
2021/07/10 04:46:36;;;;;;;14.15;8.68;;;;;;;16.81;nan;100856.03;5033821;28;20044;-78
2021/07/10 04:49:02;;;;;;;9.07;7.03;;;;;;;16.85;nan;100866.59;5042050;28;20502;-77
2021/07/10 04:51:27;;;;;;;13.65;7.90;;;;;;;16.89;nan;100871.81;5033188;28;20531;-77
2021/07/10 04:53:52;;;;;;;13.15;7.32;;;;;;;16.96;nan;100871.63;5033029;28;20574;-77
2021/07/10 04:56:18;;;;;;;10.05;6.53;;;;;;;17.01;nan;100867.03;5031187;28;20450;-77
2021/07/10 04:58:44;;;;;;;12.57;6.80;;;;;;;17.13;nan;100867.59;5034044;28;20039;-80
2021/07/10 05:01:10;;;;;;;12.02;7.30;;;;;;;17.14;nan;100861.38;5035199;28;20107;-78
2021/07/10 05:03:35;;;;;;;10.55;6.30;;;;;;;17.21;nan;100860.25;5054198;28;20040;-78
2021/07/10 05:06:00;;;;;;;9.13;5.70;;;;;;;17.29;nan;100852.91;5039177;28;20411;-78
2021/07/10 05:08:26;;;;;;;7.32;6.28;;;;;;;17.23;nan;100859.31;5040299;28;20484;-78
2021/07/10 05:10:51;;;;;;;14.30;5.72;;;;;;;17.32;nan;100860.84;5033095;28;20041;-78
2021/07/10 05:13:16;;;;;;;12.10;6.88;;;;;;;17.23;nan;100869.09;5033207;28;20041;-78
2021/07/10 05:15:42;;;;;;;8.73;6.03;;;;;;;17.20;nan;100874.53;5033204;28;20456;-78
2021/07/10 05:18:08;;;;;;;10.07;5.10;;;;;;;17.26;nan;100872.53;5032810;28;20618;-78
2021/07/10 05:20:34;;;;;;;9.68;5.90;;;;;;;17.19;nan;100878.13;5033093;28;20109;-78
2021/07/10 05:22:59;;;;;;;12.85;6.20;;;;;;;17.17;nan;100882.63;5040349;28;20091;-78
2021/07/10 05:25:25;;;;;;;9.43;5.68;;;;;;;17.16;nan;100875.53;5032408;28;20108;-78
2021/07/10 05:27:50;;;;;;;10.02;6.13;;;;;;;17.10;nan;100881.91;5032793;28;20107;-78
2021/07/10 05:30:17;;;;;;;9.00;6.07;;;;;;;17.08;nan;100879.28;5031897;28;20144;-78
2021/07/10 05:32:43;;;;;;;9.25;5.93;;;;;;;17.09;nan;100875.69;5032710;28;20127;-78
2021/07/10 05:35:11;;;;;;;9.20;5.95;;;;;;;17.14;nan;100878.25;5032401;28;20381;-78
2021/07/10 05:37:37;;;;;;;13.55;6.57;;;;;;;17.12;nan;100876.53;5032727;28;20038;-78
2021/07/10 05:40:03;;;;;;;9.38;5.40;;;;;;;17.15;nan;100887.13;5032562;28;20049;-78
2021/07/10 05:42:29;;;;;;;9.20;5.43;;;;;;;17.17;nan;100885.28;5036512;28;20492;-79
2021/07/10 05:44:54;;;;;;;10.05;5.32;;;;;;;17.14;nan;100880.91;5036787;28;20045;-78
2021/07/10 05:47:19;;;;;;;11.05;5.68;;;;;;;17.23;nan;100885.97;5047581;28;20123;-78
2021/07/10 05:49:45;;;;;;;10.63;5.80;;;;;;;17.21;nan;100884.28;5051465;28;20064;-78
2021/07/10 05:52:10;;;;;;;13.65;6.13;;;;;;;17.21;nan;100886.94;5045857;28;20044;-79
2021/07/10 05:54:36;;;;;;;9.88;5.15;;;;;;;17.29;nan;100895.59;5051320;28;20042;-78
2021/07/10 05:57:01;;;;;;;8.20;4.85;;;;;;;17.34;nan;100888.34;5035300;28;20041;-78
2021/07/10 05:59:26;;;;;;;9.60;5.57;;;;;;;17.38;nan;100883.81;5035755;28;20116;-79
2021/07/10 06:01:52;;;;;;;9.52;5.40;;;;;;;17.37;nan;100892.72;5035311;28;20067;-78
2021/07/10 06:04:17;;;;;;;11.48;5.78;;;;;;;17.27;nan;100892.13;5033355;28;20037;-78
2021/07/10 06:06:44;;;;;;;9.23;5.50;;;;;;;17.23;nan;100896.66;5034683;28;20132;-78
2021/07/10 06:09:09;;;;;;;10.85;6.13;;;;;;;17.13;nan;100902.28;5035140;28;20064;-78
2021/07/10 06:11:34;;;;;;;12.00;6.13;;;;;;;17.06;nan;100899.78;5035678;28;20037;-78
2021/07/10 06:14:03;;;;;;;11.13;5.43;;;;;;;17.01;nan;100907.03;5035515;28;20041;-78
2021/07/10 06:16:28;;;;;;;10.65;5.65;;;;;;;17.05;nan;100914.03;5034283;28;20029;-79
2021/07/10 06:18:53;;;;;;;11.18;5.78;;;;;;;17.06;nan;100915.78;5030611;28;20115;-77
2021/07/10 06:21:19;;;;;;;12.52;5.13;;;;;;;17.21;nan;100918.94;5041886;28;20076;-78
2021/07/10 06:23:45;;;;;;;10.35;6.13;;;;;;;17.28;nan;100920.53;5034910;28;20036;-78
2021/07/10 06:26:11;;;;;;;8.48;5.35;;;;;;;17.46;nan;100922.69;5034292;28;20045;-78
2021/07/10 06:28:36;;;;;;;10.32;5.28;;;;;;;17.63;nan;100915.97;5034211;28;20499;-78
2021/07/10 06:31:02;;;;;;;9.88;5.00;;;;;;;17.82;nan;100921.72;5032830;28;20041;-78
2021/07/10 06:33:27;;;;;;;8.70;6.10;;;;;;;17.92;nan;100918.72;5034814;28;20037;-78
2021/07/10 06:35:52;;;;;;;8.52;5.53;;;;;;;18.03;nan;100915.72;5034651;28;20113;-78
2021/07/10 06:38:18;;;;;;;10.63;7.00;;;;;;;18.16;nan;100916.19;5034474;28;20033;-78
2021/07/10 06:40:43;;;;;;;9.60;5.40;;;;;;;18.26;nan;100914.09;5034781;28;20045;-78
2021/07/10 06:43:08;;;;;;;7.80;4.43;;;;;;;18.45;nan;100915.25;5034342;28;20044;-79
2021/07/10 06:45:34;;;;;;;10.60;5.90;;;;;;;18.61;nan;100912.97;5034459;28;20037;-79
2021/07/10 06:48:01;;;;;;;9.30;5.70;;;;;;;18.64;nan;100918.19;5034110;28;20033;-79
2021/07/10 06:50:28;;;;;;;10.57;5.70;;;;;;;18.57;nan;100920.19;5034204;28;20069;-78
2021/07/10 06:52:53;;;;;;;9.57;5.95;;;;;;;18.51;nan;100919.53;5033801;28;20060;-79
2021/07/10 06:55:18;;;;;;;17.42;5.30;;;;;;;18.51;nan;100922.22;5026136;28;20065;-78
2021/07/10 06:57:44;;;;;;;10.80;5.78;;;;;;;18.67;nan;100923.44;5036573;28;20071;-79
2021/07/10 07:00:15;;;;;;;8.00;5.70;;;;;;;18.67;nan;100928.78;5026807;28;20030;-78
2021/07/10 07:02:41;;;;;;;9.90;5.05;;;;;;;18.78;nan;100925.78;5032616;28;20029;-79
2021/07/10 07:05:07;;;;;;;9.73;5.20;;;;;;;18.85;nan;100921.13;5033637;28;20041;-79
2021/07/10 07:07:32;;;;;;;10.15;5.40;;;;;;;18.83;nan;100924.69;5034168;28;20041;-79
2021/07/10 07:09:58;;;;;;;10.02;5.03;;;;;;;18.97;nan;100918.03;5034679;28;20030;-79
2021/07/10 07:12:23;;;;;;;14.98;5.72;;;;;;;19.11;nan;100918.41;5030537;28;20116;-80
2021/07/10 07:14:49;;;;;;;12.85;5.18;;;;;;;19.23;nan;100927.78;5034343;28;20041;-80
2021/07/10 07:17:14;;;;;;;10.45;5.60;;;;;;;19.42;nan;100926.19;5034691;28;20041;-80
2021/07/10 07:19:40;;;;;;;9.50;5.30;;;;;;;19.67;nan;100925.31;5034567;28;20040;-80
2021/07/10 07:22:05;;;;;;;15.63;5.85;;;;;;;19.78;nan;100924.91;5031835;28;20120;-78
2021/07/10 07:24:30;;;;;;;12.40;5.28;;;;;;;19.84;nan;100922.88;5022342;28;20022;-79
2021/07/10 07:26:56;;;;;;;9.23;5.60;;;;;;;19.92;nan;100920.78;5025339;28;20026;-79
2021/07/10 07:29:21;;;;;;;10.25;6.80;;;;;;;20.07;nan;100922.00;5029815;28;20037;-79
2021/07/10 07:31:47;;;;;;;11.40;7.30;;;;;;;20.10;nan;100919.19;5031845;28;20073;-78
2021/07/10 07:34:12;;;;;;;11.95;6.93;;;;;;;20.24;nan;100913.25;5032477;28;20037;-80
2021/07/10 07:36:38;;;;;;;12.93;9.93;;;;;;;20.28;nan;100916.72;5033625;28;20128;-79
2021/07/10 07:39:06;;;;;;;12.82;5.40;;;;;;;20.27;nan;100915.81;5031960;28;20026;-80
2021/07/10 07:41:33;;;;;;;8.38;5.35;;;;;;;20.40;nan;100924.25;5041084;28;20052;-80
2021/07/10 07:43:58;;;;;;;9.25;6.20;;;;;;;20.47;nan;100917.69;5034368;28;20037;-80
2021/07/10 07:46:23;;;;;;;9.73;6.45;;;;;;;20.65;nan;100917.91;5032562;28;20490;-80
2021/07/10 07:48:49;;;;;;;11.88;7.78;;;;;;;20.66;nan;100914.28;5031823;28;20431;-80
2021/07/10 07:51:18;;;;;;;12.65;8.25;;;;;;;20.66;nan;100908.91;5021394;28;20557;-80
2021/07/10 07:53:44;;;;;;;14.05;10.25;;;;;;;20.81;nan;100907.41;5033321;28;20037;-79
2021/07/10 07:56:11;;;;;;;7.47;6.00;;;;;;;21.01;nan;100910.97;5033100;28;20049;-80
2021/07/10 07:58:36;;;;;;;10.90;9.43;;;;;;;21.04;nan;100907.28;5033154;28;20063;-81
2021/07/10 08:01:02;;;;;;;7.40;5.28;;;;;;;21.36;nan;100913.91;5034725;28;20042;-80
2021/07/10 08:03:27;;;;;;;8.05;6.60;;;;;;;21.35;nan;100914.84;5033364;28;20037;-80
2021/07/10 08:05:52;;;;;;;8.40;5.60;;;;;;;21.44;nan;100902.84;5032013;28;20044;-80
2021/07/10 08:08:18;;;;;;;7.88;5.43;;;;;;;21.47;nan;100904.53;5032052;28;20033;-80
2021/07/10 08:10:43;;;;;;;10.98;8.85;;;;;;;21.37;nan;100907.59;5030307;28;20065;-80
2021/07/10 08:13:09;;;;;;;9.15;5.90;;;;;;;21.56;nan;100907.69;5031133;28;20041;-80
2021/07/10 08:15:35;;;;;;;11.40;6.00;;;;;;;21.81;nan;100903.84;5032297;28;20049;-80
2021/07/10 08:18:01;;;;;;;10.13;7.18;;;;;;;22.01;nan;100908.28;5031516;28;20036;-79
2021/07/10 08:20:26;;;;;;;6.88;5.32;;;;;;;22.11;nan;100904.19;5032649;28;20045;-81
2021/07/10 08:22:52;;;;;;;8.88;5.20;;;;;;;22.26;nan;100910.66;5032736;28;20052;-80
2021/07/10 08:25:18;;;;;;;7.78;5.82;;;;;;;22.07;nan;100902.59;5030685;28;20120;-80
2021/07/10 08:27:44;;;;;;;10.73;6.65;;;;;;;22.24;nan;100905.38;5032601;28;20037;-79
2021/07/10 08:30:10;;;;;;;9.23;6.05;;;;;;;22.40;nan;100905.50;5032163;28;20504;-80
2021/07/10 08:32:36;;;;;;;9.27;5.78;;;;;;;22.48;nan;100903.31;5032250;28;20040;-80
2021/07/10 08:35:05;;;;;;;6.72;5.32;;;;;;;22.65;nan;100902.44;5031959;28;20042;-79
2021/07/10 08:37:31;;;;;;;9.30;5.60;;;;;;;22.67;nan;100894.31;5030375;28;20058;-80
2021/07/10 08:39:57;;;;;;;8.50;4.30;;;;;;;22.72;nan;100894.94;5030934;28;20124;-81
2021/07/10 08:42:23;;;;;;;11.60;6.78;;;;;;;22.45;nan;100907.94;5028715;28;20034;-80
2021/07/10 08:44:53;;;;;;;7.00;5.93;;;;;;;22.53;nan;100900.34;5032056;28;20737;-79
2021/07/10 08:47:18;;;;;;;8.38;6.68;;;;;;;22.56;nan;100902.91;5031191;28;20077;-80
2021/07/10 08:49:44;;;;;;;10.02;6.10;;;;;;;22.78;nan;100893.75;5032007;28;20034;-79
2021/07/10 08:52:10;;;;;;;7.57;4.85;;;;;;;22.59;nan;100904.59;5032053;28;20073;-79
2021/07/10 08:54:36;;;;;;;6.45;4.45;;;;;;;22.30;nan;100902.38;5014059;28;20407;-78
2021/07/10 08:57:03;;;;;;;9.50;4.35;;;;;;;22.20;nan;100903.78;5029131;28;20448;-79
2021/07/10 08:59:28;;;;;;;8.15;4.65;;;;;;;22.29;nan;100903.31;5014023;28;20041;-79
2021/07/10 09:01:55;;;;;;;5.78;4.70;;;;;;;22.35;nan;100902.16;5032032;28;20041;-80
2021/07/10 09:04:22;;;;;;;6.95;4.38;;;;;;;22.67;nan;100899.69;5028687;28;20098;-81
2021/07/10 09:06:48;;;;;;;8.63;4.70;;;;;;;22.80;nan;100894.56;5042235;28;20044;-81
2021/07/10 09:09:13;;;;;;;7.82;4.25;;;;;;;22.82;nan;100892.63;5032148;28;20068;-80
2021/07/10 09:11:39;;;;;;;6.85;4.25;;;;;;;22.92;nan;100896.59;5038348;28;20405;-81
2021/07/10 09:14:05;;;;;;;6.35;4.70;;;;;;;22.78;nan;100888.38;5036215;28;20037;-81
2021/07/10 09:16:35;;;;;;;5.93;4.03;;;;;;;22.93;nan;100892.97;5038313;28;20518;-82
2021/07/10 09:19:11;;;;;;;6.38;4.40;;;;;;;23.25;nan;100880.53;5043706;28;20084;-81
2021/07/10 09:21:46;;;;;;;6.70;4.07;;;;;;;23.52;nan;100886.22;5040523;28;20407;-81
2021/07/10 09:24:31;;;;;;;6.03;4.60;;;;;;;23.46;nan;100880.31;5048437;28;20034;-82
2021/07/10 09:27:00;;;;;;;5.55;4.15;;;;;;;23.53;nan;100879.91;5038579;28;20037;-81
2021/07/10 09:29:35;;;;;;;5.55;4.45;;;;;;;23.52;nan;100882.69;5039155;28;20042;-81
2021/07/10 09:32:05;;;;;;;4.93;3.75;;;;;;;23.44;nan;100879.53;5038297;28;20037;-81
2021/07/10 09:34:36;;;;;;;9.93;4.75;;;;;;;23.61;nan;100880.34;5039033;28;20495;-81
2021/07/10 09:37:12;;;;;;;6.33;4.07;;;;;;;24.00;nan;100887.22;5039472;28;20033;-81
2021/07/10 09:39:43;;;;;;;5.43;4.40;;;;;;;24.39;nan;100883.19;5025669;28;20030;-82
2021/07/10 09:42:10;;;;;;;5.82;4.22;;;;;;;24.62;nan;100878.28;5046264;28;20381;-82
2021/07/10 09:44:45;;;;;;;7.22;4.13;;;;;;;24.86;nan;100884.94;5037268;28;20030;-81
2021/07/10 09:47:13;;;;;;;4.93;3.63;;;;;;;24.88;nan;100879.41;5037987;28;20034;-82
2021/07/10 09:49:39;;;;;;;5.50;4.10;;;;;;;24.71;nan;100885.84;5044764;28;20037;-82
2021/07/10 09:52:08;;;;;;;7.70;4.25;;;;;;;24.31;nan;100880.03;5036203;28;20085;-82
2021/07/10 09:54:54;;;;;;;5.20;4.00;;;;;;;24.11;nan;100880.34;5045786;28;20495;-79
2021/07/10 09:57:32;;;;;;;5.88;4.60;;;;;;;24.17;nan;100878.16;5039114;28;20399;-84
2021/07/10 10:00:19;;;;;;;7.13;3.50;;;;;;;24.39;nan;100875.09;5051809;28;20045;-81
2021/07/10 10:02:50;;;;;;;7.15;4.55;;;;;;;24.25;nan;100880.41;5047900;28;20033;-82
2021/07/10 10:05:18;;;;;;;5.07;4.23;;;;;;;24.27;nan;100873.97;5036858;28;20128;-82
2021/07/10 10:07:51;;;;;;;6.00;4.32;;;;;;;24.40;nan;100871.44;5045145;28;20136;-82
2021/07/10 10:10:17;;;;;;;6.72;4.45;;;;;;;24.55;nan;100866.09;5025218;28;20481;-81
2021/07/10 10:12:42;;;;;;;5.88;3.70;;;;;;;24.88;nan;100866.78;5044786;28;20056;-82
2021/07/10 10:15:09;;;;;;;7.35;4.45;;;;;;;24.89;nan;100864.97;5038244;28;20480;-81
2021/07/10 10:17:35;;;;;;;7.70;4.45;;;;;;;25.27;nan;100868.03;5036915;28;20025;-81
2021/07/10 10:20:01;;;;;;;7.07;4.20;;;;;;;25.25;nan;100871.78;5045414;28;20462;-81
2021/07/10 10:22:27;;;;;;;5.03;3.90;;;;;;;25.09;nan;100866.44;5036003;28;20040;-81
2021/07/10 10:24:54;;;;;;;5.72;4.15;;;;;;;24.98;nan;100859.00;5036348;28;20114;-81
2021/07/10 10:27:19;;;;;;;5.05;4.20;;;;;;;24.92;nan;100860.25;5034744;28;20087;-81
2021/07/10 10:29:49;;;;;;;5.03;3.70;;;;;;;25.23;nan;100863.81;5035964;28;20477;-80
2021/07/10 10:32:14;;;;;;;4.88;3.85;;;;;;;25.48;nan;100859.56;5035904;28;20061;-80
2021/07/10 10:34:40;;;;;;;5.85;4.00;;;;;;;25.35;nan;100867.56;5036658;28;20030;-82
2021/07/10 10:37:07;;;;;;;5.60;4.00;;;;;;;25.10;nan;100860.09;5039519;28;20042;-81
2021/07/10 10:39:34;;;;;;;6.70;3.70;;;;;;;25.00;nan;100853.53;5039823;23;20419;-75
2021/07/10 10:42:21;;;;;;;5.30;3.90;;;;;;;25.29;nan;100858.00;5021479;28;20520;-75
2021/07/10 10:44:48;;;;;;;4.70;3.25;;;;;;;25.72;nan;100852.56;5022257;28;20609;-75
2021/07/10 10:47:14;;;;;;;7.35;3.78;;;;;;;26.02;nan;100847.03;5024079;28;20094;-75
2021/07/10 10:49:50;;;;;;;7.57;4.03;;;;;;;25.61;nan;100848.84;5022352;28;20445;-75
2021/07/10 10:52:20;;;;;;;5.63;3.45;;;;;;;25.53;nan;100846.63;5021213;28;20080;-75
2021/07/10 10:54:47;;;;;;;5.43;3.92;;;;;;;25.40;nan;100837.56;5021096;28;20072;-75
2021/07/10 10:57:12;;;;;;;6.20;4.00;;;;;;;25.52;nan;100842.19;5024667;28;20041;-75
2021/07/10 10:59:40;;;;;;;6.40;4.20;;;;;;;25.47;nan;100841.63;5021018;28;20038;-75
2021/07/10 11:02:32;;;;;;;5.53;3.30;;;;;;;25.47;nan;100838.91;5021159;28;20508;-75
2021/07/10 11:04:57;;;;;;;8.25;3.60;;;;;;;25.53;nan;100838.50;5021090;28;20567;-75
2021/07/10 11:07:28;;;;;;;7.07;4.18;;;;;;;25.64;nan;100840.53;5024196;28;20123;-75
2021/07/10 11:10:02;;;;;;;4.28;3.45;;;;;;;25.75;nan;100829.88;5020971;28;20025;-75
2021/07/10 11:12:46;;;;;;;5.95;3.67;;;;;;;25.55;nan;100820.38;5021559;28;20069;-75
2021/07/10 11:15:27;;;;;;;6.10;3.95;;;;;;;25.32;nan;100821.84;5021201;28;20550;-75
2021/07/10 11:17:53;;;;;;;6.40;3.40;;;;;;;25.58;nan;100829.13;5021453;28;20042;-75
2021/07/10 11:20:46;;;;;;;4.75;2.97;;;;;;;25.33;nan;100820.84;5023673;28;20038;-75
2021/07/10 11:23:27;;;;;;;7.18;3.10;;;;;;;25.48;nan;100824.44;5019733;28;20052;-75
2021/07/10 11:25:55;;;;;;;5.75;3.35;;;;;;;25.63;nan;100812.63;5021892;28;20068;-75
2021/07/10 11:28:22;;;;;;;6.05;3.25;;;;;;;25.88;nan;100816.47;5018241;28;20049;-76
2021/07/10 11:30:54;;;;;;;4.88;3.42;;;;;;;25.76;nan;100818.97;5022772;28;20038;-75
2021/07/10 11:33:38;;;;;;;;;;;;;;;25.67;nan;100808.75;5024679;28;20038;-75
2021/07/10 11:36:23;;;;;;;4.70;3.40;;;;;;;25.99;nan;100803.09;5026473;28;19940;-75